sensor_id;sensor_type;location;lat;lon;timestamp;P1;durP1;ratioP1;P2;durP2;ratioP2
49592;SDS011;35499;51.482;4.264;2022-11-12T00:01:59;15.03;;;7.50;;
49592;SDS011;35499;51.482;4.264;2022-11-12T00:04:24;19.47;;;8.90;;
49592;SDS011;35499;51.482;4.264;2022-11-12T00:06:49;18.43;;;9.03;;
49592;SDS011;35499;51.482;4.264;2022-11-12T00:09:14;17.63;;;7.03;;
49592;SDS011;35499;51.482;4.264;2022-11-12T00:11:40;13.57;;;7.93;;
49592;SDS011;35499;51.482;4.264;2022-11-12T00:14:05;19.80;;;8.30;;
49592;SDS011;35499;51.482;4.264;2022-11-12T00:16:30;17.20;;;7.73;;
49592;SDS011;35499;51.482;4.264;2022-11-12T00:18:55;11.23;;;6.27;;
49592;SDS011;35499;51.482;4.264;2022-11-12T00:21:20;15.83;;;7.27;;
49592;SDS011;35499;51.482;4.264;2022-11-12T00:23:45;11.80;;;6.67;;
49592;SDS011;35499;51.482;4.264;2022-11-12T00:26:11;18.13;;;8.70;;
49592;SDS011;35499;51.482;4.264;2022-11-12T00:28:36;15.30;;;7.40;;
49592;SDS011;35499;51.482;4.264;2022-11-12T00:31:05;17.83;;;9.70;;
49592;SDS011;35499;51.482;4.264;2022-11-12T00:33:31;16.20;;;8.05;;
49592;SDS011;35499;51.482;4.264;2022-11-12T00:35:57;16.20;;;7.97;;
49592;SDS011;35499;51.482;4.264;2022-11-12T00:38:23;16.73;;;8.35;;
49592;SDS011;35499;51.482;4.264;2022-11-12T00:40:48;17.00;;;9.03;;
49592;SDS011;35499;51.482;4.264;2022-11-12T00:43:13;19.17;;;8.27;;
49592;SDS011;35499;51.482;4.264;2022-11-12T00:45:38;14.77;;;7.30;;
49592;SDS011;35499;51.482;4.264;2022-11-12T00:48:03;13.03;;;7.23;;
49592;SDS011;35499;51.482;4.264;2022-11-12T00:50:29;12.50;;;6.97;;
49592;SDS011;35499;51.482;4.264;2022-11-12T00:52:54;12.57;;;7.33;;
49592;SDS011;35499;51.482;4.264;2022-11-12T00:55:19;17.77;;;9.63;;
49592;SDS011;35499;51.482;4.264;2022-11-12T00:57:44;16.77;;;7.53;;
49592;SDS011;35499;51.482;4.264;2022-11-12T01:00:13;18.87;;;7.57;;
49592;SDS011;35499;51.482;4.264;2022-11-12T01:02:38;20.02;;;8.30;;
49592;SDS011;35499;51.482;4.264;2022-11-12T01:05:03;16.63;;;7.70;;
49592;SDS011;35499;51.482;4.264;2022-11-12T01:07:28;16.13;;;7.90;;
49592;SDS011;35499;51.482;4.264;2022-11-12T01:09:54;19.23;;;7.87;;
49592;SDS011;35499;51.482;4.264;2022-11-12T01:12:19;14.43;;;7.03;;
49592;SDS011;35499;51.482;4.264;2022-11-12T01:14:44;14.87;;;8.23;;
49592;SDS011;35499;51.482;4.264;2022-11-12T01:17:09;16.70;;;7.50;;
49592;SDS011;35499;51.482;4.264;2022-11-12T01:19:34;19.07;;;8.73;;
49592;SDS011;35499;51.482;4.264;2022-11-12T01:22:00;16.80;;;8.37;;
49592;SDS011;35499;51.482;4.264;2022-11-12T01:24:25;15.23;;;9.60;;
49592;SDS011;35499;51.482;4.264;2022-11-12T01:26:50;14.40;;;7.23;;
49592;SDS011;35499;51.482;4.264;2022-11-12T01:29:15;15.80;;;7.57;;
49592;SDS011;35499;51.482;4.264;2022-11-12T01:31:40;18.73;;;7.83;;
49592;SDS011;35499;51.482;4.264;2022-11-12T01:34:06;17.40;;;8.23;;
49592;SDS011;35499;51.482;4.264;2022-11-12T01:36:33;20.15;;;8.43;;
49592;SDS011;35499;51.482;4.264;2022-11-12T01:38:58;20.10;;;7.70;;
49592;SDS011;35499;51.482;4.264;2022-11-12T01:41:25;15.67;;;7.53;;
49592;SDS011;35499;51.482;4.264;2022-11-12T01:46:35;14.80;;;8.73;;
49592;SDS011;35499;51.482;4.264;2022-11-12T01:49:01;14.30;;;7.75;;
49592;SDS011;35499;51.482;4.264;2022-11-12T01:51:30;18.98;;;10.43;;
49592;SDS011;35499;51.482;4.264;2022-11-12T01:53:57;15.75;;;7.15;;
49592;SDS011;35499;51.482;4.264;2022-11-12T01:56:25;14.70;;;7.38;;
49592;SDS011;35499;51.482;4.264;2022-11-12T01:58:52;15.05;;;8.32;;
49592;SDS011;35499;51.482;4.264;2022-11-12T02:01:19;17.05;;;7.47;;
49592;SDS011;35499;51.482;4.264;2022-11-12T02:03:45;19.60;;;8.37;;
49592;SDS011;35499;51.482;4.264;2022-11-12T02:06:11;15.73;;;8.37;;
49592;SDS011;35499;51.482;4.264;2022-11-12T02:08:37;23.88;;;8.10;;
49592;SDS011;35499;51.482;4.264;2022-11-12T02:11:10;14.68;;;8.13;;
49592;SDS011;35499;51.482;4.264;2022-11-12T02:13:36;14.73;;;8.15;;
49592;SDS011;35499;51.482;4.264;2022-11-12T02:16:20;14.88;;;8.25;;
49592;SDS011;35499;51.482;4.264;2022-11-12T02:18:45;17.40;;;7.73;;
49592;SDS011;35499;51.482;4.264;2022-11-12T02:21:10;16.33;;;7.20;;
49592;SDS011;35499;51.482;4.264;2022-11-12T02:23:35;17.70;;;7.93;;
49592;SDS011;35499;51.482;4.264;2022-11-12T02:26:02;13.38;;;7.07;;
49592;SDS011;35499;51.482;4.264;2022-11-12T02:28:27;15.02;;;7.18;;
49592;SDS011;35499;51.482;4.264;2022-11-12T02:30:54;16.70;;;7.55;;
49592;SDS011;35499;51.482;4.264;2022-11-12T02:33:19;16.17;;;8.00;;
49592;SDS011;35499;51.482;4.264;2022-11-12T02:35:44;11.50;;;6.73;;
49592;SDS011;35499;51.482;4.264;2022-11-12T02:38:10;21.17;;;8.63;;
49592;SDS011;35499;51.482;4.264;2022-11-12T02:40:35;15.33;;;8.23;;
49592;SDS011;35499;51.482;4.264;2022-11-12T02:43:00;15.23;;;8.30;;
49592;SDS011;35499;51.482;4.264;2022-11-12T02:45:25;13.40;;;7.50;;
49592;SDS011;35499;51.482;4.264;2022-11-12T02:47:51;15.52;;;8.65;;
49592;SDS011;35499;51.482;4.264;2022-11-12T02:50:17;19.17;;;8.23;;
49592;SDS011;35499;51.482;4.264;2022-11-12T02:52:42;13.73;;;7.38;;
49592;SDS011;35499;51.482;4.264;2022-11-12T02:55:08;14.15;;;8.23;;
49592;SDS011;35499;51.482;4.264;2022-11-12T02:57:34;18.25;;;9.48;;
49592;SDS011;35499;51.482;4.264;2022-11-12T02:59:59;19.83;;;8.35;;
49592;SDS011;35499;51.482;4.264;2022-11-12T03:02:24;14.87;;;6.87;;
49592;SDS011;35499;51.482;4.264;2022-11-12T03:04:49;15.70;;;8.00;;
49592;SDS011;35499;51.482;4.264;2022-11-12T03:07:14;13.60;;;7.60;;
49592;SDS011;35499;51.482;4.264;2022-11-12T03:09:40;12.43;;;7.53;;
49592;SDS011;35499;51.482;4.264;2022-11-12T03:12:05;22.20;;;8.43;;
49592;SDS011;35499;51.482;4.264;2022-11-12T03:14:30;16.43;;;8.00;;
49592;SDS011;35499;51.482;4.264;2022-11-12T03:16:55;13.97;;;7.20;;
49592;SDS011;35499;51.482;4.264;2022-11-12T03:19:20;12.20;;;6.70;;
49592;SDS011;35499;51.482;4.264;2022-11-12T03:21:45;14.97;;;7.13;;
49592;SDS011;35499;51.482;4.264;2022-11-12T03:24:11;13.90;;;7.80;;
49592;SDS011;35499;51.482;4.264;2022-11-12T03:26:36;16.85;;;8.00;;
49592;SDS011;35499;51.482;4.264;2022-11-12T03:29:01;20.60;;;7.97;;
49592;SDS011;35499;51.482;4.264;2022-11-12T03:31:26;10.82;;;7.45;;
49592;SDS011;35499;51.482;4.264;2022-11-12T03:33:52;12.87;;;6.67;;
49592;SDS011;35499;51.482;4.264;2022-11-12T03:36:17;15.87;;;7.60;;
49592;SDS011;35499;51.482;4.264;2022-11-12T03:38:42;18.23;;;7.60;;
49592;SDS011;35499;51.482;4.264;2022-11-12T03:41:07;14.20;;;7.30;;
49592;SDS011;35499;51.482;4.264;2022-11-12T03:43:32;12.00;;;6.73;;
49592;SDS011;35499;51.482;4.264;2022-11-12T03:45:57;17.63;;;7.13;;
49592;SDS011;35499;51.482;4.264;2022-11-12T03:48:23;9.90;;;5.63;;
49592;SDS011;35499;51.482;4.264;2022-11-12T03:50:48;13.33;;;7.17;;
49592;SDS011;35499;51.482;4.264;2022-11-12T03:53:13;15.87;;;6.67;;
49592;SDS011;35499;51.482;4.264;2022-11-12T03:55:38;11.70;;;6.20;;
49592;SDS011;35499;51.482;4.264;2022-11-12T03:58:04;10.65;;;6.53;;
49592;SDS011;35499;51.482;4.264;2022-11-12T04:00:29;12.83;;;5.73;;
49592;SDS011;35499;51.482;4.264;2022-11-12T04:02:54;14.30;;;6.13;;
49592;SDS011;35499;51.482;4.264;2022-11-12T04:05:19;11.23;;;6.60;;
49592;SDS011;35499;51.482;4.264;2022-11-12T04:10:47;9.57;;;5.65;;
49592;SDS011;35499;51.482;4.264;2022-11-12T04:13:13;11.73;;;4.87;;
49592;SDS011;35499;51.482;4.264;2022-11-12T04:18:43;12.32;;;6.35;;
49592;SDS011;35499;51.482;4.264;2022-11-12T04:21:32;10.30;;;5.90;;
49592;SDS011;35499;51.482;4.264;2022-11-12T04:24:21;13.88;;;7.15;;
49592;SDS011;35499;51.482;4.264;2022-11-12T04:27:05;9.13;;;5.47;;
49592;SDS011;35499;51.482;4.264;2022-11-12T04:29:30;12.68;;;6.13;;
49592;SDS011;35499;51.482;4.264;2022-11-12T04:32:14;9.43;;;4.95;;
49592;SDS011;35499;51.482;4.264;2022-11-12T04:34:39;11.93;;;6.53;;
49592;SDS011;35499;51.482;4.264;2022-11-12T04:37:05;10.37;;;6.10;;
49592;SDS011;35499;51.482;4.264;2022-11-12T04:39:30;12.40;;;6.18;;
49592;SDS011;35499;51.482;4.264;2022-11-12T04:41:55;10.60;;;5.90;;
49592;SDS011;35499;51.482;4.264;2022-11-12T04:44:39;9.20;;;5.78;;
49592;SDS011;35499;51.482;4.264;2022-11-12T04:47:23;11.50;;;5.63;;
49592;SDS011;35499;51.482;4.264;2022-11-12T04:49:48;10.53;;;5.40;;
49592;SDS011;35499;51.482;4.264;2022-11-12T04:52:13;11.17;;;5.40;;
49592;SDS011;35499;51.482;4.264;2022-11-12T04:54:38;12.63;;;5.87;;
49592;SDS011;35499;51.482;4.264;2022-11-12T04:57:03;9.53;;;4.97;;
49592;SDS011;35499;51.482;4.264;2022-11-12T04:59:29;9.83;;;5.63;;
49592;SDS011;35499;51.482;4.264;2022-11-12T05:01:54;9.20;;;5.37;;
49592;SDS011;35499;51.482;4.264;2022-11-12T05:04:19;8.87;;;4.70;;
49592;SDS011;35499;51.482;4.264;2022-11-12T05:06:44;9.17;;;4.50;;
49592;SDS011;35499;51.482;4.264;2022-11-12T05:09:16;15.68;;;6.15;;
49592;SDS011;35499;51.482;4.264;2022-11-12T05:11:41;10.73;;;4.95;;
49592;SDS011;35499;51.482;4.264;2022-11-12T05:14:07;5.83;;;4.07;;
49592;SDS011;35499;51.482;4.264;2022-11-12T05:16:32;11.20;;;5.53;;
49592;SDS011;35499;51.482;4.264;2022-11-12T05:18:57;10.97;;;6.40;;
49592;SDS011;35499;51.482;4.264;2022-11-12T05:21:22;8.10;;;4.80;;
49592;SDS011;35499;51.482;4.264;2022-11-12T05:24:06;9.10;;;4.78;;
49592;SDS011;35499;51.482;4.264;2022-11-12T05:26:32;9.60;;;4.77;;
49592;SDS011;35499;51.482;4.264;2022-11-12T05:28:57;9.57;;;5.07;;
49592;SDS011;35499;51.482;4.264;2022-11-12T05:31:22;9.07;;;5.20;;
49592;SDS011;35499;51.482;4.264;2022-11-12T05:33:47;10.73;;;5.83;;
49592;SDS011;35499;51.482;4.264;2022-11-12T05:36:13;13.67;;;6.03;;
49592;SDS011;35499;51.482;4.264;2022-11-12T05:38:38;11.20;;;5.57;;
49592;SDS011;35499;51.482;4.264;2022-11-12T05:41:03;9.75;;;5.47;;
49592;SDS011;35499;51.482;4.264;2022-11-12T05:43:28;11.80;;;6.93;;
49592;SDS011;35499;51.482;4.264;2022-11-12T05:45:54;11.10;;;5.93;;
49592;SDS011;35499;51.482;4.264;2022-11-12T05:48:19;10.10;;;5.70;;
49592;SDS011;35499;51.482;4.264;2022-11-12T05:50:44;9.00;;;4.73;;
49592;SDS011;35499;51.482;4.264;2022-11-12T05:53:09;10.53;;;5.83;;
49592;SDS011;35499;51.482;4.264;2022-11-12T05:55:34;11.73;;;6.43;;
49592;SDS011;35499;51.482;4.264;2022-11-12T05:58:03;11.47;;;5.60;;
49592;SDS011;35499;51.482;4.264;2022-11-12T06:00:28;10.95;;;6.13;;
49592;SDS011;35499;51.482;4.264;2022-11-12T06:02:55;12.30;;;4.73;;
49592;SDS011;35499;51.482;4.264;2022-11-12T06:05:20;9.85;;;4.80;;
49592;SDS011;35499;51.482;4.264;2022-11-12T06:07:46;10.00;;;4.83;;
49592;SDS011;35499;51.482;4.264;2022-11-12T06:10:11;10.93;;;5.27;;
49592;SDS011;35499;51.482;4.264;2022-11-12T06:12:36;10.20;;;5.43;;
49592;SDS011;35499;51.482;4.264;2022-11-12T06:15:01;10.63;;;5.60;;
49592;SDS011;35499;51.482;4.264;2022-11-12T06:17:26;11.90;;;5.03;;
49592;SDS011;35499;51.482;4.264;2022-11-12T06:19:51;11.20;;;4.33;;
49592;SDS011;35499;51.482;4.264;2022-11-12T06:22:17;8.20;;;4.67;;
49592;SDS011;35499;51.482;4.264;2022-11-12T06:24:42;8.33;;;4.70;;
49592;SDS011;35499;51.482;4.264;2022-11-12T06:27:07;13.40;;;5.03;;
49592;SDS011;35499;51.482;4.264;2022-11-12T06:29:32;11.13;;;5.20;;
49592;SDS011;35499;51.482;4.264;2022-11-12T06:31:58;12.43;;;6.18;;
49592;SDS011;35499;51.482;4.264;2022-11-12T06:34:23;6.47;;;4.33;;
49592;SDS011;35499;51.482;4.264;2022-11-12T06:36:48;9.93;;;5.10;;
49592;SDS011;35499;51.482;4.264;2022-11-12T06:39:13;18.63;;;6.53;;
49592;SDS011;35499;51.482;4.264;2022-11-12T06:41:39;9.63;;;5.00;;
49592;SDS011;35499;51.482;4.264;2022-11-12T06:44:04;10.57;;;4.73;;
49592;SDS011;35499;51.482;4.264;2022-11-12T06:46:29;15.00;;;5.97;;
49592;SDS011;35499;51.482;4.264;2022-11-12T06:48:54;8.17;;;5.17;;
49592;SDS011;35499;51.482;4.264;2022-11-12T06:51:20;8.83;;;4.87;;
49592;SDS011;35499;51.482;4.264;2022-11-12T06:53:45;9.27;;;5.55;;
49592;SDS011;35499;51.482;4.264;2022-11-12T06:56:11;10.40;;;5.87;;
49592;SDS011;35499;51.482;4.264;2022-11-12T06:58:36;8.45;;;4.28;;
49592;SDS011;35499;51.482;4.264;2022-11-12T07:01:09;8.93;;;4.50;;
49592;SDS011;35499;51.482;4.264;2022-11-12T07:03:34;8.05;;;4.43;;
49592;SDS011;35499;51.482;4.264;2022-11-12T07:06:04;8.50;;;5.00;;
49592;SDS011;35499;51.482;4.264;2022-11-12T07:08:29;7.63;;;4.63;;
49592;SDS011;35499;51.482;4.264;2022-11-12T07:10:55;13.10;;;5.23;;
49592;SDS011;35499;51.482;4.264;2022-11-12T07:13:21;14.25;;;5.85;;
49592;SDS011;35499;51.482;4.264;2022-11-12T07:15:46;6.83;;;4.37;;
49592;SDS011;35499;51.482;4.264;2022-11-12T07:18:11;9.50;;;4.97;;
49592;SDS011;35499;51.482;4.264;2022-11-12T07:20:37;10.33;;;5.40;;
49592;SDS011;35499;51.482;4.264;2022-11-12T07:23:02;10.15;;;6.10;;
49592;SDS011;35499;51.482;4.264;2022-11-12T07:25:27;9.13;;;4.53;;
49592;SDS011;35499;51.482;4.264;2022-11-12T07:27:52;7.13;;;4.70;;
49592;SDS011;35499;51.482;4.264;2022-11-12T07:30:19;10.93;;;5.13;;
49592;SDS011;35499;51.482;4.264;2022-11-12T07:32:44;9.23;;;5.03;;
49592;SDS011;35499;51.482;4.264;2022-11-12T07:35:09;7.90;;;4.70;;
49592;SDS011;35499;51.482;4.264;2022-11-12T07:37:34;12.70;;;6.23;;
49592;SDS011;35499;51.482;4.264;2022-11-12T07:40:00;8.68;;;4.38;;
49592;SDS011;35499;51.482;4.264;2022-11-12T07:42:27;9.15;;;4.95;;
49592;SDS011;35499;51.482;4.264;2022-11-12T07:44:52;12.33;;;5.33;;
49592;SDS011;35499;51.482;4.264;2022-11-12T07:47:17;11.13;;;5.80;;
49592;SDS011;35499;51.482;4.264;2022-11-12T07:49:42;11.67;;;6.40;;
49592;SDS011;35499;51.482;4.264;2022-11-12T07:52:08;9.47;;;5.90;;
49592;SDS011;35499;51.482;4.264;2022-11-12T07:54:33;10.03;;;5.97;;
49592;SDS011;35499;51.482;4.264;2022-11-12T07:56:58;8.20;;;5.27;;
49592;SDS011;35499;51.482;4.264;2022-11-12T07:59:23;9.47;;;5.77;;
49592;SDS011;35499;51.482;4.264;2022-11-12T08:01:48;8.43;;;4.97;;
49592;SDS011;35499;51.482;4.264;2022-11-12T08:04:13;8.27;;;4.85;;
49592;SDS011;35499;51.482;4.264;2022-11-12T08:06:39;14.17;;;6.37;;
49592;SDS011;35499;51.482;4.264;2022-11-12T08:09:04;12.30;;;6.00;;
49592;SDS011;35499;51.482;4.264;2022-11-12T08:11:30;10.82;;;6.25;;
49592;SDS011;35499;51.482;4.264;2022-11-12T08:13:55;10.98;;;6.32;;
49592;SDS011;35499;51.482;4.264;2022-11-12T08:16:21;15.27;;;6.25;;
49592;SDS011;35499;51.482;4.264;2022-11-12T08:18:46;9.50;;;4.85;;
49592;SDS011;35499;51.482;4.264;2022-11-12T08:21:12;11.37;;;5.63;;
49592;SDS011;35499;51.482;4.264;2022-11-12T08:23:38;13.80;;;6.00;;
49592;SDS011;35499;51.482;4.264;2022-11-12T08:26:04;10.60;;;5.40;;
49592;SDS011;35499;51.482;4.264;2022-11-12T08:28:30;10.43;;;6.22;;
49592;SDS011;35499;51.482;4.264;2022-11-12T08:30:56;15.82;;;7.30;;
49592;SDS011;35499;51.482;4.264;2022-11-12T08:33:22;11.80;;;6.60;;
49592;SDS011;35499;51.482;4.264;2022-11-12T08:35:47;16.10;;;7.13;;
49592;SDS011;35499;51.482;4.264;2022-11-12T08:38:12;21.97;;;10.00;;
49592;SDS011;35499;51.482;4.264;2022-11-12T08:40:38;24.73;;;10.18;;
49592;SDS011;35499;51.482;4.264;2022-11-12T08:43:08;21.90;;;9.98;;
49592;SDS011;35499;51.482;4.264;2022-11-12T08:45:34;12.63;;;7.25;;
49592;SDS011;35499;51.482;4.264;2022-11-12T08:48:01;13.95;;;7.00;;
49592;SDS011;35499;51.482;4.264;2022-11-12T08:50:26;7.53;;;4.95;;
49592;SDS011;35499;51.482;4.264;2022-11-12T08:52:52;8.55;;;4.82;;
49592;SDS011;35499;51.482;4.264;2022-11-12T08:55:17;8.53;;;4.43;;
49592;SDS011;35499;51.482;4.264;2022-11-12T08:57:42;7.40;;;4.37;;
49592;SDS011;35499;51.482;4.264;2022-11-12T09:00:11;6.68;;;3.85;;
49592;SDS011;35499;51.482;4.264;2022-11-12T09:02:37;5.03;;;3.65;;
49592;SDS011;35499;51.482;4.264;2022-11-12T09:05:02;5.82;;;3.97;;
49592;SDS011;35499;51.482;4.264;2022-11-12T09:07:28;4.72;;;3.80;;
49592;SDS011;35499;51.482;4.264;2022-11-12T09:09:53;9.70;;;3.63;;
49592;SDS011;35499;51.482;4.264;2022-11-12T09:12:18;6.67;;;4.40;;
49592;SDS011;35499;51.482;4.264;2022-11-12T09:14:46;5.53;;;3.43;;
49592;SDS011;35499;51.482;4.264;2022-11-12T09:17:11;7.20;;;4.68;;
49592;SDS011;35499;51.482;4.264;2022-11-12T09:19:37;4.18;;;3.30;;
49592;SDS011;35499;51.482;4.264;2022-11-12T09:22:02;8.45;;;4.20;;
49592;SDS011;35499;51.482;4.264;2022-11-12T09:24:28;5.88;;;4.03;;
49592;SDS011;35499;51.482;4.264;2022-11-12T09:26:53;5.00;;;3.83;;
49592;SDS011;35499;51.482;4.264;2022-11-12T09:29:18;7.83;;;3.77;;
49592;SDS011;35499;51.482;4.264;2022-11-12T09:31:43;5.37;;;4.30;;
49592;SDS011;35499;51.482;4.264;2022-11-12T09:34:08;4.83;;;3.83;;
49592;SDS011;35499;51.482;4.264;2022-11-12T09:36:34;7.00;;;4.47;;
49592;SDS011;35499;51.482;4.264;2022-11-12T09:38:59;6.80;;;3.70;;
49592;SDS011;35499;51.482;4.264;2022-11-12T09:41:24;6.93;;;4.10;;
49592;SDS011;35499;51.482;4.264;2022-11-12T09:43:53;6.45;;;4.07;;
49592;SDS011;35499;51.482;4.264;2022-11-12T09:46:38;7.32;;;3.90;;
49592;SDS011;35499;51.482;4.264;2022-11-12T09:49:05;5.57;;;3.50;;
49592;SDS011;35499;51.482;4.264;2022-11-12T09:51:32;6.32;;;4.18;;
49592;SDS011;35499;51.482;4.264;2022-11-12T09:54:05;5.15;;;3.65;;
49592;SDS011;35499;51.482;4.264;2022-11-12T09:56:37;3.83;;;3.33;;
49592;SDS011;35499;51.482;4.264;2022-11-12T09:59:04;8.00;;;3.80;;
49592;SDS011;35499;51.482;4.264;2022-11-12T10:09:21;3.78;;;3.20;;
49592;SDS011;35499;51.482;4.264;2022-11-12T10:17:29;4.72;;;2.88;;
49592;SDS011;35499;51.482;4.264;2022-11-12T10:24:41;7.95;;;3.67;;
49592;SDS011;35499;51.482;4.264;2022-11-12T10:29:51;5.85;;;3.97;;
49592;SDS011;35499;51.482;4.264;2022-11-12T10:32:18;5.40;;;3.72;;
49592;SDS011;35499;51.482;4.264;2022-11-12T10:37:55;4.35;;;3.55;;
49592;SDS011;35499;51.482;4.264;2022-11-12T10:39:54;10.88;;;3.55;;
49592;SDS011;35499;51.482;4.264;2022-11-12T10:42:20;4.83;;;3.30;;
49592;SDS011;35499;51.482;4.264;2022-11-12T10:44:46;4.80;;;3.72;;
49592;SDS011;35499;51.482;4.264;2022-11-12T10:47:15;6.22;;;4.05;;
49592;SDS011;35499;51.482;4.264;2022-11-12T10:49:42;5.18;;;3.95;;
49592;SDS011;35499;51.482;4.264;2022-11-12T10:52:21;5.85;;;4.25;;
49592;SDS011;35499;51.482;4.264;2022-11-12T10:54:47;8.20;;;5.50;;
49592;SDS011;35499;51.482;4.264;2022-11-12T10:57:22;7.90;;;4.57;;
49592;SDS011;35499;51.482;4.264;2022-11-12T11:00:04;5.65;;;3.95;;
49592;SDS011;35499;51.482;4.264;2022-11-12T11:02:30;5.22;;;4.07;;
49592;SDS011;35499;51.482;4.264;2022-11-12T11:04:55;3.90;;;3.23;;
49592;SDS011;35499;51.482;4.264;2022-11-12T11:07:21;7.18;;;4.38;;
49592;SDS011;35499;51.482;4.264;2022-11-12T11:09:55;6.95;;;4.75;;
49592;SDS011;35499;51.482;4.264;2022-11-12T11:12:21;6.70;;;4.38;;
49592;SDS011;35499;51.482;4.264;2022-11-12T11:14:46;6.38;;;5.03;;
49592;SDS011;35499;51.482;4.264;2022-11-12T11:17:29;7.20;;;4.47;;
49592;SDS011;35499;51.482;4.264;2022-11-12T11:19:54;4.33;;;3.90;;
49592;SDS011;35499;51.482;4.264;2022-11-12T11:27:34;6.13;;;4.65;;
49592;SDS011;35499;51.482;4.264;2022-11-12T11:37:29;7.90;;;4.35;;
49592;SDS011;35499;51.482;4.264;2022-11-12T11:40:00;5.72;;;4.20;;
49592;SDS011;35499;51.482;4.264;2022-11-12T11:45:14;5.05;;;4.15;;
49592;SDS011;35499;51.482;4.264;2022-11-12T11:47:46;5.57;;;4.78;;
49592;SDS011;35499;51.482;4.264;2022-11-12T11:50:18;6.15;;;4.22;;
49592;SDS011;35499;51.482;4.264;2022-11-12T11:52:48;8.38;;;4.38;;
49592;SDS011;35499;51.482;4.264;2022-11-12T12:00:29;5.72;;;3.95;;
49592;SDS011;35499;51.482;4.264;2022-11-12T12:08:08;4.30;;;3.30;;
49592;SDS011;35499;51.482;4.264;2022-11-12T12:10:51;6.18;;;3.47;;
49592;SDS011;35499;51.482;4.264;2022-11-12T12:13:23;5.25;;;3.30;;
49592;SDS011;35499;51.482;4.264;2022-11-12T12:16:04;4.15;;;3.70;;
49592;SDS011;35499;51.482;4.264;2022-11-12T12:18:39;6.57;;;4.32;;
49592;SDS011;35499;51.482;4.264;2022-11-12T12:21:08;7.80;;;4.65;;
49592;SDS011;35499;51.482;4.264;2022-11-12T12:26:02;5.60;;;4.18;;
49592;SDS011;35499;51.482;4.264;2022-11-12T12:28:35;6.70;;;4.57;;
49592;SDS011;35499;51.482;4.264;2022-11-12T12:31:08;6.65;;;4.65;;
49592;SDS011;35499;51.482;4.264;2022-11-12T12:36:02;6.88;;;4.22;;
49592;SDS011;35499;51.482;4.264;2022-11-12T12:38:43;5.82;;;4.00;;
49592;SDS011;35499;51.482;4.264;2022-11-12T12:43:42;5.97;;;3.58;;
49592;SDS011;35499;51.482;4.264;2022-11-12T12:46:09;4.47;;;3.25;;
49592;SDS011;35499;51.482;4.264;2022-11-12T12:48:36;4.95;;;3.15;;
49592;SDS011;35499;51.482;4.264;2022-11-12T12:51:04;5.13;;;3.03;;
49592;SDS011;35499;51.482;4.264;2022-11-12T12:53:30;4.33;;;3.00;;
49592;SDS011;35499;51.482;4.264;2022-11-12T12:55:56;4.25;;;3.20;;
49592;SDS011;35499;51.482;4.264;2022-11-12T13:00:58;4.45;;;2.88;;
49592;SDS011;35499;51.482;4.264;2022-11-12T13:03:45;10.52;;;3.10;;
49592;SDS011;35499;51.482;4.264;2022-11-12T13:06:22;5.28;;;3.08;;
49592;SDS011;35499;51.482;4.264;2022-11-12T13:09:22;5.53;;;3.08;;
49592;SDS011;35499;51.482;4.264;2022-11-12T13:28:25;6.07;;;3.13;;
49592;SDS011;35499;51.482;4.264;2022-11-12T13:40:13;4.13;;;3.13;;
49592;SDS011;35499;51.482;4.264;2022-11-12T13:42:39;4.63;;;2.92;;
49592;SDS011;35499;51.482;4.264;2022-11-12T13:45:17;6.72;;;3.50;;
49592;SDS011;35499;51.482;4.264;2022-11-12T13:47:42;4.53;;;3.25;;
49592;SDS011;35499;51.482;4.264;2022-11-12T13:50:09;3.75;;;2.70;;
49592;SDS011;35499;51.482;4.264;2022-11-12T13:52:37;5.60;;;3.42;;
49592;SDS011;35499;51.482;4.264;2022-11-12T13:55:04;5.30;;;3.05;;
49592;SDS011;35499;51.482;4.264;2022-11-12T14:00:08;8.18;;;3.22;;
49592;SDS011;35499;51.482;4.264;2022-11-12T14:02:35;6.18;;;4.03;;
49592;SDS011;35499;51.482;4.264;2022-11-12T14:12:27;6.57;;;3.55;;
49592;SDS011;35499;51.482;4.264;2022-11-12T14:17:54;7.53;;;3.67;;
49592;SDS011;35499;51.482;4.264;2022-11-12T14:20:43;6.38;;;3.38;;
49592;SDS011;35499;51.482;4.264;2022-11-12T14:25:45;4.70;;;3.22;;
49592;SDS011;35499;51.482;4.264;2022-11-12T14:28:24;5.03;;;3.25;;
49592;SDS011;35499;51.482;4.264;2022-11-12T14:30:50;8.85;;;5.05;;
49592;SDS011;35499;51.482;4.264;2022-11-12T14:33:16;18.47;;;4.80;;
49592;SDS011;35499;51.482;4.264;2022-11-12T14:35:42;7.50;;;4.18;;
49592;SDS011;35499;51.482;4.264;2022-11-12T14:40:33;9.07;;;4.25;;
49592;SDS011;35499;51.482;4.264;2022-11-12T14:42:59;9.75;;;4.40;;
49592;SDS011;35499;51.482;4.264;2022-11-12T14:45:24;8.83;;;4.00;;
49592;SDS011;35499;51.482;4.264;2022-11-12T14:47:50;5.83;;;3.47;;
49592;SDS011;35499;51.482;4.264;2022-11-12T14:50:17;6.05;;;3.75;;
49592;SDS011;35499;51.482;4.264;2022-11-12T14:52:45;9.30;;;3.83;;
49592;SDS011;35499;51.482;4.264;2022-11-12T14:55:16;5.43;;;3.65;;
49592;SDS011;35499;51.482;4.264;2022-11-12T14:57:43;4.32;;;3.60;;
49592;SDS011;35499;51.482;4.264;2022-11-12T15:02:43;7.07;;;3.75;;
49592;SDS011;35499;51.482;4.264;2022-11-12T15:05:13;7.03;;;3.70;;
49592;SDS011;35499;51.482;4.264;2022-11-12T15:10:29;5.90;;;2.88;;
49592;SDS011;35499;51.482;4.264;2022-11-12T15:15:29;6.32;;;3.25;;
49592;SDS011;35499;51.482;4.264;2022-11-12T15:17:55;6.78;;;3.83;;
49592;SDS011;35499;51.482;4.264;2022-11-12T15:20:21;8.50;;;3.85;;
49592;SDS011;35499;51.482;4.264;2022-11-12T15:22:49;7.23;;;3.97;;
49592;SDS011;35499;51.482;4.264;2022-11-12T15:27:47;8.38;;;3.95;;
49592;SDS011;35499;51.482;4.264;2022-11-12T15:30:17;6.70;;;3.17;;
49592;SDS011;35499;51.482;4.264;2022-11-12T15:32:43;4.78;;;3.20;;
49592;SDS011;35499;51.482;4.264;2022-11-12T15:37:48;6.55;;;2.97;;
49592;SDS011;35499;51.482;4.264;2022-11-12T15:40:15;5.38;;;2.72;;
49592;SDS011;35499;51.482;4.264;2022-11-12T15:42:42;7.22;;;3.17;;
49592;SDS011;35499;51.482;4.264;2022-11-12T15:45:18;5.45;;;3.05;;
49592;SDS011;35499;51.482;4.264;2022-11-12T15:47:43;6.20;;;3.63;;
49592;SDS011;35499;51.482;4.264;2022-11-12T15:52:37;6.00;;;3.08;;
49592;SDS011;35499;51.482;4.264;2022-11-12T15:55:02;4.97;;;2.90;;
49592;SDS011;35499;51.482;4.264;2022-11-12T15:57:28;4.90;;;3.40;;
49592;SDS011;35499;51.482;4.264;2022-11-12T15:59:59;5.80;;;3.55;;
49592;SDS011;35499;51.482;4.264;2022-11-12T16:02:24;6.65;;;4.00;;
49592;SDS011;35499;51.482;4.264;2022-11-12T16:04:50;9.03;;;3.40;;
49592;SDS011;35499;51.482;4.264;2022-11-12T16:07:15;4.30;;;2.92;;
49592;SDS011;35499;51.482;4.264;2022-11-12T16:09:40;4.83;;;3.20;;
49592;SDS011;35499;51.482;4.264;2022-11-12T16:12:07;4.30;;;3.13;;
49592;SDS011;35499;51.482;4.264;2022-11-12T16:14:33;11.85;;;4.38;;
49592;SDS011;35499;51.482;4.264;2022-11-12T16:16:59;8.35;;;3.95;;
49592;SDS011;35499;51.482;4.264;2022-11-12T16:19:24;5.30;;;3.27;;
49592;SDS011;35499;51.482;4.264;2022-11-12T16:21:50;8.45;;;3.45;;
49592;SDS011;35499;51.482;4.264;2022-11-12T16:24:16;7.13;;;3.27;;
49592;SDS011;35499;51.482;4.264;2022-11-12T16:26:41;5.73;;;3.40;;
49592;SDS011;35499;51.482;4.264;2022-11-12T16:29:10;6.43;;;3.60;;
49592;SDS011;35499;51.482;4.264;2022-11-12T16:31:36;8.82;;;6.10;;
49592;SDS011;35499;51.482;4.264;2022-11-12T16:34:01;6.50;;;4.13;;
49592;SDS011;35499;51.482;4.264;2022-11-12T16:36:26;10.00;;;5.13;;
49592;SDS011;35499;51.482;4.264;2022-11-12T16:38:52;9.90;;;4.78;;
49592;SDS011;35499;51.482;4.264;2022-11-12T16:41:17;12.33;;;5.47;;
49592;SDS011;35499;51.482;4.264;2022-11-12T16:43:42;7.73;;;3.93;;
49592;SDS011;35499;51.482;4.264;2022-11-12T16:46:12;4.90;;;3.23;;
49592;SDS011;35499;51.482;4.264;2022-11-12T16:48:38;6.15;;;3.10;;